sensor_id;sensor_type;location;lat;lon;timestamp;temperature;humidity
11772;DHT22;12556;55.748;13.194;2022-10-04T00:02:22;9.00;99.90
11772;DHT22;12556;55.748;13.194;2022-10-04T00:04:54;9.00;99.90
11772;DHT22;12556;55.748;13.194;2022-10-04T00:07:26;9.00;99.90
11772;DHT22;12556;55.748;13.194;2022-10-04T00:09:56;9.00;99.90
11772;DHT22;12556;55.748;13.194;2022-10-04T00:12:27;9.00;99.90
11772;DHT22;12556;55.748;13.194;2022-10-04T00:14:58;8.90;99.90
11772;DHT22;12556;55.748;13.194;2022-10-04T00:17:27;8.90;99.90
11772;DHT22;12556;55.748;13.194;2022-10-04T00:19:57;9.00;99.90
11772;DHT22;12556;55.748;13.194;2022-10-04T00:22:28;9.00;99.90
11772;DHT22;12556;55.748;13.194;2022-10-04T00:25:16;8.90;99.90
11772;DHT22;12556;55.748;13.194;2022-10-04T00:28:28;8.90;99.90
11772;DHT22;12556;55.748;13.194;2022-10-04T00:31:13;9.00;99.90
11772;DHT22;12556;55.748;13.194;2022-10-04T00:33:41;9.00;99.90
11772;DHT22;12556;55.748;13.194;2022-10-04T00:36:43;9.00;99.90
11772;DHT22;12556;55.748;13.194;2022-10-04T00:42:24;9.10;99.90
11772;DHT22;12556;55.748;13.194;2022-10-04T00:44:59;9.10;99.90
11772;DHT22;12556;55.748;13.194;2022-10-04T00:47:30;9.20;99.90
11772;DHT22;12556;55.748;13.194;2022-10-04T00:50:06;9.30;99.90
11772;DHT22;12556;55.748;13.194;2022-10-04T00:52:35;9.30;99.90
11772;DHT22;12556;55.748;13.194;2022-10-04T00:55:08;9.40;99.90
11772;DHT22;12556;55.748;13.194;2022-10-04T00:57:43;9.40;99.90
11772;DHT22;12556;55.748;13.194;2022-10-04T01:00:14;9.50;99.90
11772;DHT22;12556;55.748;13.194;2022-10-04T01:02:50;9.50;99.90
11772;DHT22;12556;55.748;13.194;2022-10-04T01:05:20;9.60;99.90
11772;DHT22;12556;55.748;13.194;2022-10-04T01:07:55;9.60;99.90
11772;DHT22;12556;55.748;13.194;2022-10-04T01:10:26;9.60;99.90
11772;DHT22;12556;55.748;13.194;2022-10-04T01:12:58;9.70;99.90
11772;DHT22;12556;55.748;13.194;2022-10-04T01:15:33;9.70;99.90
11772;DHT22;12556;55.748;13.194;2022-10-04T01:18:12;9.80;99.90
11772;DHT22;12556;55.748;13.194;2022-10-04T01:20:49;9.80;99.90
11772;DHT22;12556;55.748;13.194;2022-10-04T01:23:36;9.80;99.90
11772;DHT22;12556;55.748;13.194;2022-10-04T01:26:04;9.80;99.90
11772;DHT22;12556;55.748;13.194;2022-10-04T01:28:32;9.80;99.90
11772;DHT22;12556;55.748;13.194;2022-10-04T01:30:59;9.80;99.90
11772;DHT22;12556;55.748;13.194;2022-10-04T01:33:26;9.90;99.90
11772;DHT22;12556;55.748;13.194;2022-10-04T01:35:53;9.90;99.90
11772;DHT22;12556;55.748;13.194;2022-10-04T01:38:21;9.90;99.90
11772;DHT22;12556;55.748;13.194;2022-10-04T01:40:53;9.90;99.90
11772;DHT22;12556;55.748;13.194;2022-10-04T01:43:25;9.80;99.90
11772;DHT22;12556;55.748;13.194;2022-10-04T01:45:57;9.80;99.90
11772;DHT22;12556;55.748;13.194;2022-10-04T01:48:28;9.70;99.90
11772;DHT22;12556;55.748;13.194;2022-10-04T01:51:00;9.70;99.90
11772;DHT22;12556;55.748;13.194;2022-10-04T01:53:31;9.60;99.90
11772;DHT22;12556;55.748;13.194;2022-10-04T01:56:06;9.60;99.90
11772;DHT22;12556;55.748;13.194;2022-10-04T01:58:40;9.50;99.90
11772;DHT22;12556;55.748;13.194;2022-10-04T02:01:13;9.50;99.90
11772;DHT22;12556;55.748;13.194;2022-10-04T02:03:46;9.40;99.90
11772;DHT22;12556;55.748;13.194;2022-10-04T02:06:18;9.30;99.90
11772;DHT22;12556;55.748;13.194;2022-10-04T02:08:48;9.30;99.90
11772;DHT22;12556;55.748;13.194;2022-10-04T02:11:18;9.20;99.90
11772;DHT22;12556;55.748;13.194;2022-10-04T02:13:49;9.20;99.90
11772;DHT22;12556;55.748;13.194;2022-10-04T02:16:17;9.10;99.90
11772;DHT22;12556;55.748;13.194;2022-10-04T02:18:45;9.10;99.90
11772;DHT22;12556;55.748;13.194;2022-10-04T02:21:14;9.00;99.90
11772;DHT22;12556;55.748;13.194;2022-10-04T02:23:42;9.00;99.90
11772;DHT22;12556;55.748;13.194;2022-10-04T02:26:10;9.00;99.90
11772;DHT22;12556;55.748;13.194;2022-10-04T02:28:39;9.00;99.90
11772;DHT22;12556;55.748;13.194;2022-10-04T02:31:07;8.90;99.90
11772;DHT22;12556;55.748;13.194;2022-10-04T02:33:56;9.00;99.90
11772;DHT22;12556;55.748;13.194;2022-10-04T02:36:26;8.80;99.90
11772;DHT22;12556;55.748;13.194;2022-10-04T02:38:57;8.70;99.90
11772;DHT22;12556;55.748;13.194;2022-10-04T02:41:30;8.70;99.90
11772;DHT22;12556;55.748;13.194;2022-10-04T02:44:02;8.60;99.90
11772;DHT22;12556;55.748;13.194;2022-10-04T02:46:32;8.60;99.90
11772;DHT22;12556;55.748;13.194;2022-10-04T02:49:05;8.50;99.90
11772;DHT22;12556;55.748;13.194;2022-10-04T02:51:40;8.50;99.90
11772;DHT22;12556;55.748;13.194;2022-10-04T02:54:15;8.50;99.90
11772;DHT22;12556;55.748;13.194;2022-10-04T02:56:49;8.40;99.90
11772;DHT22;12556;55.748;13.194;2022-10-04T02:59:20;8.40;99.90
11772;DHT22;12556;55.748;13.194;2022-10-04T03:01:51;8.40;99.90
11772;DHT22;12556;55.748;13.194;2022-10-04T03:04:20;8.40;99.90
11772;DHT22;12556;55.748;13.194;2022-10-04T03:06:49;8.40;99.90
11772;DHT22;12556;55.748;13.194;2022-10-04T03:09:19;8.40;99.90
11772;DHT22;12556;55.748;13.194;2022-10-04T03:11:47;8.40;99.90
11772;DHT22;12556;55.748;13.194;2022-10-04T03:14:17;8.40;99.90
11772;DHT22;12556;55.748;13.194;2022-10-04T03:16:48;8.40;99.90
11772;DHT22;12556;55.748;13.194;2022-10-04T03:19:16;8.30;99.90
11772;DHT22;12556;55.748;13.194;2022-10-04T03:21:46;8.30;99.90
11772;DHT22;12556;55.748;13.194;2022-10-04T03:24:17;8.20;99.90
11772;DHT22;12556;55.748;13.194;2022-10-04T03:26:46;8.20;99.90
11772;DHT22;12556;55.748;13.194;2022-10-04T03:29:15;8.20;99.90
11772;DHT22;12556;55.748;13.194;2022-10-04T03:31:47;8.10;99.90
11772;DHT22;12556;55.748;13.194;2022-10-04T03:34:15;8.10;99.90
11772;DHT22;12556;55.748;13.194;2022-10-04T03:36:43;8.00;99.90
11772;DHT22;12556;55.748;13.194;2022-10-04T03:39:17;8.00;99.90
11772;DHT22;12556;55.748;13.194;2022-10-04T03:41:45;7.90;99.90
11772;DHT22;12556;55.748;13.194;2022-10-04T03:44:15;7.80;99.90
11772;DHT22;12556;55.748;13.194;2022-10-04T03:46:44;7.80;99.90
11772;DHT22;12556;55.748;13.194;2022-10-04T03:49:17;7.70;99.90
11772;DHT22;12556;55.748;13.194;2022-10-04T03:51:50;7.70;99.90
11772;DHT22;12556;55.748;13.194;2022-10-04T03:54:20;7.60;99.90
11772;DHT22;12556;55.748;13.194;2022-10-04T03:56:50;7.60;99.90
11772;DHT22;12556;55.748;13.194;2022-10-04T03:59:19;7.60;99.90
11772;DHT22;12556;55.748;13.194;2022-10-04T04:01:49;7.60;99.90
11772;DHT22;12556;55.748;13.194;2022-10-04T04:04:25;7.60;99.90
11772;DHT22;12556;55.748;13.194;2022-10-04T04:07:00;7.60;99.90
11772;DHT22;12556;55.748;13.194;2022-10-04T04:09:37;7.60;99.90
11772;DHT22;12556;55.748;13.194;2022-10-04T04:12:05;7.60;99.90
11772;DHT22;12556;55.748;13.194;2022-10-04T04:14:36;7.60;99.90
11772;DHT22;12556;55.748;13.194;2022-10-04T04:17:33;7.60;99.90
11772;DHT22;12556;55.748;13.194;2022-10-04T04:20:06;7.60;99.90
11772;DHT22;12556;55.748;13.194;2022-10-04T04:22:40;7.50;99.90
11772;DHT22;12556;55.748;13.194;2022-10-04T04:25:14;7.50;99.90
11772;DHT22;12556;55.748;13.194;2022-10-04T04:27:42;7.40;99.90
11772;DHT22;12556;55.748;13.194;2022-10-04T04:30:16;7.50;99.90
11772;DHT22;12556;55.748;13.194;2022-10-04T04:32:46;7.50;99.90
11772;DHT22;12556;55.748;13.194;2022-10-04T04:35:24;7.50;99.90
11772;DHT22;12556;55.748;13.194;2022-10-04T04:38:04;7.40;99.90
11772;DHT22;12556;55.748;13.194;2022-10-04T04:40:32;7.40;99.90
11772;DHT22;12556;55.748;13.194;2022-10-04T04:43:00;7.40;99.90
11772;DHT22;12556;55.748;13.194;2022-10-04T04:45:29;7.40;99.90
11772;DHT22;12556;55.748;13.194;2022-10-04T04:47:58;7.30;99.90
11772;DHT22;12556;55.748;13.194;2022-10-04T04:50:29;7.30;99.90
11772;DHT22;12556;55.748;13.194;2022-10-04T04:53:00;7.30;99.90
11772;DHT22;12556;55.748;13.194;2022-10-04T04:55:33;7.20;99.90
11772;DHT22;12556;55.748;13.194;2022-10-04T04:58:02;7.20;99.90
11772;DHT22;12556;55.748;13.194;2022-10-04T05:00:31;7.20;99.90
11772;DHT22;12556;55.748;13.194;2022-10-04T05:03:00;7.20;99.90
11772;DHT22;12556;55.748;13.194;2022-10-04T05:05:29;7.20;99.90
11772;DHT22;12556;55.748;13.194;2022-10-04T05:08:12;7.20;99.90
11772;DHT22;12556;55.748;13.194;2022-10-04T05:10:41;7.10;99.90
11772;DHT22;12556;55.748;13.194;2022-10-04T05:13:10;7.10;99.90
11772;DHT22;12556;55.748;13.194;2022-10-04T05:15:39;7.10;99.90
11772;DHT22;12556;55.748;13.194;2022-10-04T05:18:26;7.10;99.90
11772;DHT22;12556;55.748;13.194;2022-10-04T05:21:01;7.10;99.90
11772;DHT22;12556;55.748;13.194;2022-10-04T05:23:28;7.10;99.90
11772;DHT22;12556;55.748;13.194;2022-10-04T05:25:57;6.80;99.90
11772;DHT22;12556;55.748;13.194;2022-10-04T05:28:27;7.00;99.90
11772;DHT22;12556;55.748;13.194;2022-10-04T05:31:11;7.10;99.90
11772;DHT22;12556;55.748;13.194;2022-10-04T05:33:45;7.00;99.90
11772;DHT22;12556;55.748;13.194;2022-10-04T05:36:35;7.00;99.90
11772;DHT22;12556;55.748;13.194;2022-10-04T05:39:10;7.00;99.90
11772;DHT22;12556;55.748;13.194;2022-10-04T05:41:47;7.00;99.90
11772;DHT22;12556;55.748;13.194;2022-10-04T05:44:22;7.10;99.90
11772;DHT22;12556;55.748;13.194;2022-10-04T05:46:51;7.10;99.90
11772;DHT22;12556;55.748;13.194;2022-10-04T05:49:19;7.10;99.90
11772;DHT22;12556;55.748;13.194;2022-10-04T05:51:51;7.10;99.90
11772;DHT22;12556;55.748;13.194;2022-10-04T05:54:21;7.20;99.90
11772;DHT22;12556;55.748;13.194;2022-10-04T05:57:23;7.20;99.90
11772;DHT22;12556;55.748;13.194;2022-10-04T06:00:12;7.30;99.90
11772;DHT22;12556;55.748;13.194;2022-10-04T06:03:03;7.30;99.90
11772;DHT22;12556;55.748;13.194;2022-10-04T06:05:43;7.40;99.90
11772;DHT22;12556;55.748;13.194;2022-10-04T06:08:22;7.40;99.90
11772;DHT22;12556;55.748;13.194;2022-10-04T06:11:13;7.50;99.90
11772;DHT22;12556;55.748;13.194;2022-10-04T06:14:02;7.60;99.90
11772;DHT22;12556;55.748;13.194;2022-10-04T06:16:46;7.80;99.90
11772;DHT22;12556;55.748;13.194;2022-10-04T06:19:36;7.90;99.90
11772;DHT22;12556;55.748;13.194;2022-10-04T06:22:14;8.00;99.90
11772;DHT22;12556;55.748;13.194;2022-10-04T06:24:47;8.10;99.90
11772;DHT22;12556;55.748;13.194;2022-10-04T06:27:19;8.30;99.90
11772;DHT22;12556;55.748;13.194;2022-10-04T06:29:50;8.50;99.90
11772;DHT22;12556;55.748;13.194;2022-10-04T06:32:56;8.60;99.90
11772;DHT22;12556;55.748;13.194;2022-10-04T06:39:08;9.00;99.90
11772;DHT22;12556;55.748;13.194;2022-10-04T06:41:47;9.10;99.90
11772;DHT22;12556;55.748;13.194;2022-10-04T06:44:33;9.30;99.90
11772;DHT22;12556;55.748;13.194;2022-10-04T06:47:17;9.40;99.90
11772;DHT22;12556;55.748;13.194;2022-10-04T06:49:53;9.60;99.90
11772;DHT22;12556;55.748;13.194;2022-10-04T06:52:27;9.70;99.90
11772;DHT22;12556;55.748;13.194;2022-10-04T06:55:19;10.00;99.90
11772;DHT22;12556;55.748;13.194;2022-10-04T07:00:51;10.30;99.90
11772;DHT22;12556;55.748;13.194;2022-10-04T07:03:23;10.40;99.90
11772;DHT22;12556;55.748;13.194;2022-10-04T07:05:54;10.50;99.90
11772;DHT22;12556;55.748;13.194;2022-10-04T07:08:27;10.60;99.90
11772;DHT22;12556;55.748;13.194;2022-10-04T07:11:00;10.80;99.90
11772;DHT22;12556;55.748;13.194;2022-10-04T07:13:40;10.90;99.90
11772;DHT22;12556;55.748;13.194;2022-10-04T07:16:22;11.10;99.90
11772;DHT22;12556;55.748;13.194;2022-10-04T07:18:58;11.20;99.90
11772;DHT22;12556;55.748;13.194;2022-10-04T07:21:35;11.40;99.90
11772;DHT22;12556;55.748;13.194;2022-10-04T07:24:08;11.60;99.90
11772;DHT22;12556;55.748;13.194;2022-10-04T07:26:43;11.70;99.90
11772;DHT22;12556;55.748;13.194;2022-10-04T07:29:15;11.90;99.90
11772;DHT22;12556;55.748;13.194;2022-10-04T07:31:52;12.10;99.90
11772;DHT22;12556;55.748;13.194;2022-10-04T07:34:29;12.30;99.90
11772;DHT22;12556;55.748;13.194;2022-10-04T07:36:59;12.50;99.90
11772;DHT22;12556;55.748;13.194;2022-10-04T07:39:39;12.70;99.90
11772;DHT22;12556;55.748;13.194;2022-10-04T07:42:18;12.90;99.90
11772;DHT22;12556;55.748;13.194;2022-10-04T07:44:57;13.00;99.90
11772;DHT22;12556;55.748;13.194;2022-10-04T07:47:26;13.20;99.90
11772;DHT22;12556;55.748;13.194;2022-10-04T07:49:54;13.30;99.90
11772;DHT22;12556;55.748;13.194;2022-10-04T07:52:42;13.40;99.90
11772;DHT22;12556;55.748;13.194;2022-10-04T07:55:22;13.50;99.90
11772;DHT22;12556;55.748;13.194;2022-10-04T07:58:13;13.60;99.90
11772;DHT22;12556;55.748;13.194;2022-10-04T08:00:48;13.80;99.90
11772;DHT22;12556;55.748;13.194;2022-10-04T08:03:39;13.80;99.90
11772;DHT22;12556;55.748;13.194;2022-10-04T08:06:17;14.00;99.90
11772;DHT22;12556;55.748;13.194;2022-10-04T08:11:57;14.10;99.90
11772;DHT22;12556;55.748;13.194;2022-10-04T08:14:37;14.10;99.90
11772;DHT22;12556;55.748;13.194;2022-10-04T08:17:15;14.10;99.90
11772;DHT22;12556;55.748;13.194;2022-10-04T08:19:56;14.10;99.90
11772;DHT22;12556;55.748;13.194;2022-10-04T08:22:33;14.20;99.90
11772;DHT22;12556;55.748;13.194;2022-10-04T08:25:12;14.20;99.90
11772;DHT22;12556;55.748;13.194;2022-10-04T08:27:52;14.20;99.90
11772;DHT22;12556;55.748;13.194;2022-10-04T08:31:00;14.20;99.90
11772;DHT22;12556;55.748;13.194;2022-10-04T08:33:47;14.20;99.90
11772;DHT22;12556;55.748;13.194;2022-10-04T08:36:26;14.20;99.90
11772;DHT22;12556;55.748;13.194;2022-10-04T08:38:58;14.20;99.90
11772;DHT22;12556;55.748;13.194;2022-10-04T08:42:04;14.20;99.90
11772;DHT22;12556;55.748;13.194;2022-10-04T08:45:23;14.20;99.90
11772;DHT22;12556;55.748;13.194;2022-10-04T08:51:28;14.20;99.90
11772;DHT22;12556;55.748;13.194;2022-10-04T08:54:35;14.20;99.90
11772;DHT22;12556;55.748;13.194;2022-10-04T09:00:19;14.30;99.90
11772;DHT22;12556;55.748;13.194;2022-10-04T09:03:21;14.30;99.90
11772;DHT22;12556;55.748;13.194;2022-10-04T09:05:59;14.40;99.90
11772;DHT22;12556;55.748;13.194;2022-10-04T09:09:08;14.40;99.90
11772;DHT22;12556;55.748;13.194;2022-10-04T09:11:48;14.50;99.90
11772;DHT22;12556;55.748;13.194;2022-10-04T09:14:43;14.60;99.90
11772;DHT22;12556;55.748;13.194;2022-10-04T09:17:19;14.60;99.90
11772;DHT22;12556;55.748;13.194;2022-10-04T09:19:54;14.70;99.90
11772;DHT22;12556;55.748;13.194;2022-10-04T09:22:41;14.90;99.90
11772;DHT22;12556;55.748;13.194;2022-10-04T09:25:33;15.00;99.90
11772;DHT22;12556;55.748;13.194;2022-10-04T09:28:20;15.10;99.90
11772;DHT22;12556;55.748;13.194;2022-10-04T09:31:04;15.30;99.90
11772;DHT22;12556;55.748;13.194;2022-10-04T09:33:54;15.40;99.90
11772;DHT22;12556;55.748;13.194;2022-10-04T09:36:59;15.50;99.90
11772;DHT22;12556;55.748;13.194;2022-10-04T09:39:47;15.60;99.90
11772;DHT22;12556;55.748;13.194;2022-10-04T09:46:00;15.70;99.90
11772;DHT22;12556;55.748;13.194;2022-10-04T09:48:39;15.90;99.90
11772;DHT22;12556;55.748;13.194;2022-10-04T09:51:26;15.80;99.90
11772;DHT22;12556;55.748;13.194;2022-10-04T09:56:54;15.80;99.90
11772;DHT22;12556;55.748;13.194;2022-10-04T09:59:46;15.80;99.90
11772;DHT22;12556;55.748;13.194;2022-10-04T10:02:43;15.30;99.90
11772;DHT22;12556;55.748;13.194;2022-10-04T10:05:22;16.00;99.90
11772;DHT22;12556;55.748;13.194;2022-10-04T10:07:59;16.00;99.90
11772;DHT22;12556;55.748;13.194;2022-10-04T10:10:40;16.00;99.90
11772;DHT22;12556;55.748;13.194;2022-10-04T10:13:56;16.10;99.90
11772;DHT22;12556;55.748;13.194;2022-10-04T10:16:36;16.10;99.90
11772;DHT22;12556;55.748;13.194;2022-10-04T10:19:43;16.10;99.90
11772;DHT22;12556;55.748;13.194;2022-10-04T10:22:27;16.10;99.90
11772;DHT22;12556;55.748;13.194;2022-10-04T10:25:11;16.20;99.90
11772;DHT22;12556;55.748;13.194;2022-10-04T10:27:51;16.20;99.90
11772;DHT22;12556;55.748;13.194;2022-10-04T10:30:24;16.20;99.90
11772;DHT22;12556;55.748;13.194;2022-10-04T10:36:12;16.40;99.90
11772;DHT22;12556;55.748;13.194;2022-10-04T10:42:03;16.50;99.90
11772;DHT22;12556;55.748;13.194;2022-10-04T10:44:46;16.60;99.90
11772;DHT22;12556;55.748;13.194;2022-10-04T10:47:31;17.10;99.90
11772;DHT22;12556;55.748;13.194;2022-10-04T10:50:23;16.80;99.90
11772;DHT22;12556;55.748;13.194;2022-10-04T10:53:25;16.90;99.90
11772;DHT22;12556;55.748;13.194;2022-10-04T10:56:18;17.00;99.90
11772;DHT22;12556;55.748;13.194;2022-10-04T11:08:31;17.50;99.90
11772;DHT22;12556;55.748;13.194;2022-10-04T11:11:24;17.50;99.90
11772;DHT22;12556;55.748;13.194;2022-10-04T11:14:25;17.60;99.90
11772;DHT22;12556;55.748;13.194;2022-10-04T11:17:13;17.50;99.90
11772;DHT22;12556;55.748;13.194;2022-10-04T11:23:28;17.50;99.90
11772;DHT22;12556;55.748;13.194;2022-10-04T11:29:11;17.50;99.90
11772;DHT22;12556;55.748;13.194;2022-10-04T11:32:04;17.50;99.90
11772;DHT22;12556;55.748;13.194;2022-10-04T11:37:51;17.80;99.90
11772;DHT22;12556;55.748;13.194;2022-10-04T11:40:34;18.00;99.90
11772;DHT22;12556;55.748;13.194;2022-10-04T11:43:18;18.10;99.90
11772;DHT22;12556;55.748;13.194;2022-10-04T11:46:11;18.20;99.90
11772;DHT22;12556;55.748;13.194;2022-10-04T11:48:56;18.20;99.90
11772;DHT22;12556;55.748;13.194;2022-10-04T11:55:08;18.00;99.90
11772;DHT22;12556;55.748;13.194;2022-10-04T11:57:47;17.90;99.90
11772;DHT22;12556;55.748;13.194;2022-10-04T12:00:19;17.90;99.90
11772;DHT22;12556;55.748;13.194;2022-10-04T12:06:08;17.70;99.90
11772;DHT22;12556;55.748;13.194;2022-10-04T12:08:52;17.50;99.90
11772;DHT22;12556;55.748;13.194;2022-10-04T12:11:41;17.40;99.90
11772;DHT22;12556;55.748;13.194;2022-10-04T12:14:40;17.30;99.90
11772;DHT22;12556;55.748;13.194;2022-10-04T12:17:34;17.20;99.90
11772;DHT22;12556;55.748;13.194;2022-10-04T12:20:32;17.10;99.90
11772;DHT22;12556;55.748;13.194;2022-10-04T12:23:27;17.00;99.90
11772;DHT22;12556;55.748;13.194;2022-10-04T12:26:36;17.00;99.90
11772;DHT22;12556;55.748;13.194;2022-10-04T12:29:41;17.00;99.90
11772;DHT22;12556;55.748;13.194;2022-10-04T12:32:13;17.00;99.90
11772;DHT22;12556;55.748;13.194;2022-10-04T12:34:50;17.00;99.90
11772;DHT22;12556;55.748;13.194;2022-10-04T12:37:24;17.00;99.90
11772;DHT22;12556;55.748;13.194;2022-10-04T12:40:13;16.90;99.90
11772;DHT22;12556;55.748;13.194;2022-10-04T12:42:52;17.00;99.90
11772;DHT22;12556;55.748;13.194;2022-10-04T12:45:47;17.10;99.90
11772;DHT22;12556;55.748;13.194;2022-10-04T12:48:31;17.20;99.90
11772;DHT22;12556;55.748;13.194;2022-10-04T12:51:16;17.20;99.90
11772;DHT22;12556;55.748;13.194;2022-10-04T12:53:49;17.30;99.90
11772;DHT22;12556;55.748;13.194;2022-10-04T12:56:30;17.40;99.90
11772;DHT22;12556;55.748;13.194;2022-10-04T12:59:15;17.40;99.90
11772;DHT22;12556;55.748;13.194;2022-10-04T13:01:53;17.40;99.90
11772;DHT22;12556;55.748;13.194;2022-10-04T13:04:28;17.40;99.90
11772;DHT22;12556;55.748;13.194;2022-10-04T13:07:16;17.40;99.90
11772;DHT22;12556;55.748;13.194;2022-10-04T13:09:52;17.40;99.90
11772;DHT22;12556;55.748;13.194;2022-10-04T13:12:33;17.50;99.90
11772;DHT22;12556;55.748;13.194;2022-10-04T13:15:20;17.60;99.90
11772;DHT22;12556;55.748;13.194;2022-10-04T13:17:56;17.70;99.90
11772;DHT22;12556;55.748;13.194;2022-10-04T13:20:46;17.60;99.90
11772;DHT22;12556;55.748;13.194;2022-10-04T13:23:23;17.60;99.90
11772;DHT22;12556;55.748;13.194;2022-10-04T13:26:12;17.80;99.90
11772;DHT22;12556;55.748;13.194;2022-10-04T13:28:48;17.90;99.90
11772;DHT22;12556;55.748;13.194;2022-10-04T13:31:23;18.00;99.90
11772;DHT22;12556;55.748;13.194;2022-10-04T13:34:06;18.00;99.90
11772;DHT22;12556;55.748;13.194;2022-10-04T13:36:47;18.00;99.90
11772;DHT22;12556;55.748;13.194;2022-10-04T13:42:32;17.90;99.90
11772;DHT22;12556;55.748;13.194;2022-10-04T13:48:37;17.80;99.90
11772;DHT22;12556;55.748;13.194;2022-10-04T13:51:30;17.70;99.90
11772;DHT22;12556;55.748;13.194;2022-10-04T13:54:09;17.70;99.90
11772;DHT22;12556;55.748;13.194;2022-10-04T13:57:13;17.50;99.90
11772;DHT22;12556;55.748;13.194;2022-10-04T13:59:45;17.50;99.90
11772;DHT22;12556;55.748;13.194;2022-10-04T14:02:43;17.40;99.90
11772;DHT22;12556;55.748;13.194;2022-10-04T14:08:39;17.40;99.90
11772;DHT22;12556;55.748;13.194;2022-10-04T14:32:54;16.80;99.90
11772;DHT22;12556;55.748;13.194;2022-10-04T14:35:27;16.90;99.90
11772;DHT22;12556;55.748;13.194;2022-10-04T14:38:15;16.80;99.90
11772;DHT22;12556;55.748;13.194;2022-10-04T14:44:34;16.70;99.90
11772;DHT22;12556;55.748;13.194;2022-10-04T14:47:32;16.70;99.90
11772;DHT22;12556;55.748;13.194;2022-10-04T14:50:19;16.70;99.90
11772;DHT22;12556;55.748;13.194;2022-10-04T14:52:57;16.60;99.90
11772;DHT22;12556;55.748;13.194;2022-10-04T14:55:48;16.60;99.90
11772;DHT22;12556;55.748;13.194;2022-10-04T14:58:23;16.60;99.90
11772;DHT22;12556;55.748;13.194;2022-10-04T15:01:17;16.50;99.90
11772;DHT22;12556;55.748;13.194;2022-10-04T15:06:41;16.40;99.90
11772;DHT22;12556;55.748;13.194;2022-10-04T15:12:25;16.30;99.90
11772;DHT22;12556;55.748;13.194;2022-10-04T15:15:15;16.30;99.90
11772;DHT22;12556;55.748;13.194;2022-10-04T15:17:58;16.20;99.90
11772;DHT22;12556;55.748;13.194;2022-10-04T15:20:31;16.20;99.90
11772;DHT22;12556;55.748;13.194;2022-10-04T15:23:08;16.20;99.90
11772;DHT22;12556;55.748;13.194;2022-10-04T15:25:42;16.20;99.90
11772;DHT22;12556;55.748;13.194;2022-10-04T15:28:37;16.10;99.90
11772;DHT22;12556;55.748;13.194;2022-10-04T15:31:17;16.10;99.90
11772;DHT22;12556;55.748;13.194;2022-10-04T15:33:57;16.10;99.90
11772;DHT22;12556;55.748;13.194;2022-10-04T15:36:59;16.10;99.90
11772;DHT22;12556;55.748;13.194;2022-10-04T15:40:04;16.10;99.90
11772;DHT22;12556;55.748;13.194;2022-10-04T15:42:36;16.00;99.90
11772;DHT22;12556;55.748;13.194;2022-10-04T15:45:21;16.00;99.90
11772;DHT22;12556;55.748;13.194;2022-10-04T15:48:08;15.90;99.90
11772;DHT22;12556;55.748;13.194;2022-10-04T15:50:41;15.80;99.90
11772;DHT22;12556;55.748;13.194;2022-10-04T15:53:24;15.80;99.90
11772;DHT22;12556;55.748;13.194;2022-10-04T15:56:10;15.70;99.90
11772;DHT22;12556;55.748;13.194;2022-10-04T15:59:02;15.70;99.90
11772;DHT22;12556;55.748;13.194;2022-10-04T16:01:47;15.60;99.90
11772;DHT22;12556;55.748;13.194;2022-10-04T16:04:42;15.60;99.90
11772;DHT22;12556;55.748;13.194;2022-10-04T16:07:40;15.50;99.90
11772;DHT22;12556;55.748;13.194;2022-10-04T16:10:18;15.50;99.90
11772;DHT22;12556;55.748;13.194;2022-10-04T16:13:22;15.40;99.90
11772;DHT22;12556;55.748;13.194;2022-10-04T16:16:19;15.30;99.90
11772;DHT22;12556;55.748;13.194;2022-10-04T16:18:53;15.20;99.90
11772;DHT22;12556;55.748;13.194;2022-10-04T16:21:28;15.10;99.90
11772;DHT22;12556;55.748;13.194;2022-10-04T16:27:18;15.00;99.90
11772;DHT22;12556;55.748;13.194;2022-10-04T16:29:54;14.90;99.90
11772;DHT22;12556;55.748;13.194;2022-10-04T16:32:28;14.80;99.90
11772;DHT22;12556;55.748;13.194;2022-10-04T16:34:59;14.70;99.90
11772;DHT22;12556;55.748;13.194;2022-10-04T16:37:34;14.70;99.90
11772;DHT22;12556;55.748;13.194;2022-10-04T16:40:18;14.60;99.90
11772;DHT22;12556;55.748;13.194;2022-10-04T16:42:55;14.60;99.90
11772;DHT22;12556;55.748;13.194;2022-10-04T16:46:01;14.40;99.90
11772;DHT22;12556;55.748;13.194;2022-10-04T16:48:36;14.40;99.90
11772;DHT22;12556;55.748;13.194;2022-10-04T16:51:24;14.40;99.90
11772;DHT22;12556;55.748;13.194;2022-10-04T16:54:05;14.20;99.90
11772;DHT22;12556;55.748;13.194;2022-10-04T16:57:10;14.10;99.90
11772;DHT22;12556;55.748;13.194;2022-10-04T16:59:46;14.10;99.90
11772;DHT22;12556;55.748;13.194;2022-10-04T17:02:42;14.00;99.90
11772;DHT22;12556;55.748;13.194;2022-10-04T17:08:30;13.90;99.90
11772;DHT22;12556;55.748;13.194;2022-10-04T17:11:27;13.90;99.90
11772;DHT22;12556;55.748;13.194;2022-10-04T17:14:01;13.80;99.90
11772;DHT22;12556;55.748;13.194;2022-10-04T17:16:37;13.80;99.90
11772;DHT22;12556;55.748;13.194;2022-10-04T17:19:24;13.80;99.90
11772;DHT22;12556;55.748;13.194;2022-10-04T17:22:00;13.80;99.90
11772;DHT22;12556;55.748;13.194;2022-10-04T17:24:45;13.70;99.90
11772;DHT22;12556;55.748;13.194;2022-10-04T17:27:24;13.70;99.90
11772;DHT22;12556;55.748;13.194;2022-10-04T17:30:11;13.70;99.90
11772;DHT22;12556;55.748;13.194;2022-10-04T17:32:53;13.60;99.90
11772;DHT22;12556;55.748;13.194;2022-10-04T17:35:56;13.60;99.90
11772;DHT22;12556;55.748;13.194;2022-10-04T17:38:30;13.50;99.90
11772;DHT22;12556;55.748;13.194;2022-10-04T17:41:09;13.50;99.90
11772;DHT22;12556;55.748;13.194;2022-10-04T17:43:44;13.50;99.90
11772;DHT22;12556;55.748;13.194;2022-10-04T17:46:16;13.40;99.90
11772;DHT22;12556;55.748;13.194;2022-10-04T17:48:54;13.50;99.90
11772;DHT22;12556;55.748;13.194;2022-10-04T17:51:43;13.40;99.90
11772;DHT22;12556;55.748;13.194;2022-10-04T17:54:32;13.30;99.90
11772;DHT22;12556;55.748;13.194;2022-10-04T17:57:26;13.30;99.90
11772;DHT22;12556;55.748;13.194;2022-10-04T18:00:05;13.20;99.90
11772;DHT22;12556;55.748;13.194;2022-10-04T18:02:50;13.20;99.90
11772;DHT22;12556;55.748;13.194;2022-10-04T18:05:25;13.20;99.90
11772;DHT22;12556;55.748;13.194;2022-10-04T18:07:57;13.10;99.90
11772;DHT22;12556;55.748;13.194;2022-10-04T18:10:29;13.10;99.90
11772;DHT22;12556;55.748;13.194;2022-10-04T18:13:00;13.10;99.90
11772;DHT22;12556;55.748;13.194;2022-10-04T18:15:31;13.10;99.90
11772;DHT22;12556;55.748;13.194;2022-10-04T18:18:12;13.10;99.90
11772;DHT22;12556;55.748;13.194;2022-10-04T18:21:05;13.10;99.90
11772;DHT22;12556;55.748;13.194;2022-10-04T18:23:36;13.10;99.90
11772;DHT22;12556;55.748;13.194;2022-10-04T18:26:09;13.00;99.90